Time;durP1;ratioP1;P1;durP2;ratioP2;P2;SDS_P1;SDS_P2;PMS_P1;PMS_P2;Temp;Humidity;BMP_temperature;BMP_pressure;BME280_temperature;BME280_humidity;BME280_pressure;Samples;Min_cycle;Max_cycle;Signal;HPM_P1;HPM_P2
2022/11/11 00:03:47;;;;;;;2.42;1.05;;;;;;;18.05;62.22;97965.44;10434603;28;20403;-31
2022/11/11 00:09:06;;;;;;;3.17;1.50;;;;;;;18.06;62.64;97957.00;10435859;28;20040;-35
2022/11/11 00:14:25;;;;;;;2.85;1.00;;;;;;;18.09;61.88;97952.00;10439252;28;20045;-29
2022/11/11 00:25:22;;;;;;;1.77;1.08;;;;;;;18.01;62.73;97956.91;10440539;28;20040;-28
2022/11/11 00:30:41;;;;;;;2.03;1.02;;;;;;;18.00;62.28;97967.03;10430429;28;20101;-29
2022/11/11 00:36:00;;;;;;;1.65;0.98;;;;;;;17.99;62.53;97983.06;10453274;28;20053;-28
2022/11/11 00:41:21;;;;;;;1.95;1.00;;;;;;;17.97;62.44;97992.28;10449710;28;20385;-30
2022/11/11 00:52:18;;;;;;;1.77;0.85;;;;;;;17.94;62.25;97990.56;10448484;28;20119;-30
2022/11/11 00:57:37;;;;;;;1.58;1.00;;;;;;;17.93;62.40;97990.50;10446132;28;20119;-30
2022/11/11 01:02:56;;;;;;;1.40;1.00;;;;;;;17.94;62.19;97987.16;10448862;28;20033;-29
2022/11/11 01:08:15;;;;;;;2.13;0.90;;;;;;;18.00;62.06;97977.16;10440905;28;20123;-29
2022/11/11 01:13:34;;;;;;;1.30;0.82;;;;;;;18.00;61.69;97969.56;10444973;28;20491;-30
2022/11/11 01:18:54;;;;;;;1.48;1.05;;;;;;;18.06;61.45;97982.34;10452630;28;20067;-29
2022/11/11 01:24:13;;;;;;;0.88;0.77;;;;;;;18.03;61.15;97990.75;10451812;28;20094;-29
2022/11/11 01:29:32;;;;;;;1.10;0.80;;;;;;;18.00;61.48;97995.75;10446197;28;20441;-30
2022/11/11 01:34:51;;;;;;;1.65;0.90;;;;;;;17.98;61.52;97994.84;10448747;28;20530;-29
2022/11/11 01:40:10;;;;;;;1.20;0.88;;;;;;;17.97;61.77;98010.88;10446510;28;20045;-29
2022/11/11 01:45:47;;;;;;;1.60;0.63;;;;;;;17.97;61.71;98017.63;10438856;28;20045;-29
2022/11/11 01:51:15;;;;;;;1.05;0.77;;;;;;;17.95;61.95;98024.34;10438579;28;20104;-30
2022/11/11 01:56:35;;;;;;;1.02;0.55;;;;;;;17.95;61.83;98016.72;10443908;28;20037;-30
2022/11/11 02:01:53;;;;;;;0.70;0.50;;;;;;;17.95;61.55;98015.06;10444542;28;20555;-29
2022/11/11 02:07:13;;;;;;;1.05;0.60;;;;;;;17.94;61.61;98017.56;10431969;28;20116;-29
2022/11/11 02:18:10;;;;;;;0.60;0.60;;;;;;;18.01;61.04;98014.34;10436827;28;20060;-29
2022/11/11 02:23:45;;;;;;;0.95;0.60;;;;;;;18.06;60.89;98033.03;10432190;28;20037;-30
2022/11/11 02:29:10;;;;;;;0.85;0.40;;;;;;;17.97;61.09;98028.63;10432245;28;20037;-30
2022/11/11 02:34:30;;;;;;;1.58;0.52;;;;;;;17.96;60.93;98031.09;10439338;28;20037;-29
2022/11/11 02:39:53;;;;;;;1.52;0.70;;;;;;;17.95;61.31;98029.41;10436915;28;20040;-30
2022/11/11 02:45:12;;;;;;;1.10;0.60;;;;;;;17.93;61.04;98042.03;10435190;28;20274;-31
2022/11/11 02:50:31;;;;;;;0.65;0.52;;;;;;;17.93;60.80;98046.25;10434991;28;20075;-30
2022/11/11 02:55:50;;;;;;;0.90;0.55;;;;;;;17.94;61.29;98063.16;10438682;28;20120;-29
2022/11/11 03:01:09;;;;;;;1.10;0.55;;;;;;;17.93;60.84;98048.78;10434771;28;20038;-29
2022/11/11 03:06:28;;;;;;;0.70;0.32;;;;;;;17.87;61.38;98044.44;10435447;28;20052;-29
2022/11/11 03:11:47;;;;;;;0.60;0.30;;;;;;;17.93;61.15;98046.25;10434539;28;20041;-29
2022/11/11 03:22:44;;;;;;;1.42;0.40;;;;;;;18.04;60.75;98054.94;10438919;28;20466;-29
2022/11/11 03:28:13;;;;;;;0.28;0.28;;;;;;;18.04;60.78;98054.94;10438353;28;20037;-30
2022/11/11 03:33:32;;;;;;;0.88;0.52;;;;;;;18.01;60.49;98052.38;10436340;28;20044;-30
2022/11/11 03:38:51;;;;;;;0.40;0.40;;;;;;;17.91;60.66;98046.22;10432691;28;20045;-29
2022/11/11 03:44:10;;;;;;;0.52;0.28;;;;;;;17.95;60.66;98075.00;10436588;28;20412;-29
2022/11/11 03:49:29;;;;;;;2.53;0.40;;;;;;;17.91;61.17;98074.09;10437798;28;20465;-31
2022/11/11 03:54:48;;;;;;;0.32;0.28;;;;;;;17.85;60.78;98063.81;10431452;28;20042;-29
2022/11/11 04:00:09;;;;;;;0.90;0.47;;;;;;;17.89;60.72;98064.72;10437091;28;20087;-29
2022/11/11 04:11:10;;;;;;;0.22;0.22;;;;;;;17.91;60.80;98050.44;10432241;28;20487;-29
2022/11/11 04:16:29;;;;;;;1.02;0.65;;;;;;;17.86;60.40;98034.25;10436167;28;20045;-29
2022/11/11 04:21:48;;;;;;;0.30;0.20;;;;;;;17.91;60.56;98038.59;10438969;28;20044;-29
2022/11/11 04:27:10;;;;;;;0.50;0.30;;;;;;;17.93;60.23;98026.00;10435232;28;20037;-29
2022/11/11 04:32:37;;;;;;;0.55;0.40;;;;;;;17.99;60.17;98033.75;10434961;28;20033;-30
2022/11/11 04:41:02;;;;;;;0.50;0.28;;;;;;;18.04;59.45;98027.06;10429347;28;20037;-30
2022/11/11 04:45:26;;;;;;;0.20;0.20;;;;;;;17.97;60.26;98022.69;10432224;28;20037;-29
2022/11/11 04:49:15;;;;;;;0.57;0.45;;;;;;;17.96;60.27;98031.09;10430317;28;20036;-28
2022/11/11 04:56:46;;;;;;;1.98;0.30;;;;;;;17.95;60.46;98019.28;10427526;28;20496;-29
2022/11/11 05:00:16;;;;;;;0.30;0.22;;;;;;;17.99;59.79;98003.31;10428907;28;20495;-29
2022/11/11 05:11:13;;;;;;;0.60;0.40;;;;;;;18.08;59.51;98019.56;10432843;28;20041;-30
2022/11/11 05:22:34;;;;;;;0.90;0.40;;;;;;;18.12;59.10;98038.25;10432654;28;20045;-29
2022/11/11 05:27:54;;;;;;;1.05;0.30;;;;;;;18.02;59.35;98051.53;10439946;28;20037;-31
2022/11/11 05:33:13;;;;;;;0.32;0.20;;;;;;;18.05;58.47;98065.13;10452463;28;20427;-30
2022/11/11 05:38:32;;;;;;;0.40;0.40;;;;;;;18.11;58.65;98077.09;10441280;28;20411;-29
2022/11/11 05:43:51;;;;;;;2.45;0.50;;;;;;;17.79;56.14;98089.00;10440559;28;20044;-30
2022/11/11 05:49:16;;;;;;;0.98;0.40;;;;;;;17.48;54.19;98101.72;10439479;28;20041;-30
2022/11/11 05:54:35;;;;;;;2.17;0.75;;;;;;;17.53;54.29;98099.28;10432383;28;20037;-30
2022/11/11 05:59:54;;;;;;;1.52;0.52;;;;;;;17.88;56.03;98113.69;10431064;28;20045;-29
2022/11/11 06:05:14;;;;;;;2.10;0.68;;;;;;;17.98;56.68;98130.84;10436848;28;20033;-30
2022/11/11 06:10:33;;;;;;;2.17;0.32;;;;;;;18.05;56.64;98132.69;10434669;28;20120;-30
2022/11/11 06:15:55;;;;;;;4.07;0.90;;;;;;;18.07;57.33;98131.91;10434576;28;20041;-30
2022/11/11 06:21:14;;;;;;;2.03;0.70;;;;;;;18.06;57.96;98124.25;10437489;28;20116;-29
2022/11/11 06:26:34;;;;;;;5.57;0.73;;;;;;;18.00;57.98;98134.28;10438966;28;20037;-30
2022/11/11 06:31:53;;;;;;;14.52;1.15;;;;;;;17.92;57.31;98140.84;10429442;28;20041;-29
2022/11/11 06:37:12;;;;;;;2.15;0.80;;;;;;;17.98;58.41;98141.00;10439713;28;20045;-30
2022/11/11 06:42:36;;;;;;;7.03;0.88;;;;;;;17.98;59.44;98154.50;10435394;28;20033;-29
2022/11/11 06:47:55;;;;;;;12.40;1.30;;;;;;;17.99;58.91;98155.38;10440616;28;20060;-29
2022/11/11 06:53:17;;;;;;;5.35;1.48;;;;;;;18.04;59.05;98161.41;10431205;28;20053;-30
2022/11/11 06:58:36;;;;;;;3.13;0.63;;;;;;;18.06;59.01;98164.81;10439999;28;20037;-30
2022/11/11 07:03:55;;;;;;;3.90;1.92;;;;;;;18.02;59.31;98168.09;10435403;28;20431;-30
2022/11/11 07:09:14;;;;;;;1.90;0.70;;;;;;;18.00;59.17;98169.75;10428184;28;20064;-30
2022/11/11 07:14:33;;;;;;;5.18;0.90;;;;;;;18.02;59.56;98173.19;10437967;28;20144;-29
2022/11/11 07:19:52;;;;;;;1.58;0.68;;;;;;;18.02;59.74;98168.09;10442009;28;20040;-29
2022/11/11 07:25:11;;;;;;;4.05;0.70;;;;;;;18.03;60.14;98169.81;10441130;28;20037;-29
2022/11/11 07:30:30;;;;;;;4.07;0.63;;;;;;;18.01;60.06;98167.22;10431710;28;20045;-30
2022/11/11 07:35:48;;;;;;;4.72;1.10;;;;;;;18.04;59.66;98161.41;10437534;28;20041;-29
2022/11/11 07:41:07;;;;;;;5.72;1.42;;;;;;;18.01;60.39;98167.22;10433150;28;20033;-29
2022/11/11 07:46:26;;;;;;;6.25;1.75;;;;;;;18.01;60.21;98161.31;10430969;28;20450;-30
2022/11/11 07:51:45;;;;;;;33.88;4.28;;;;;;;18.07;60.56;98161.50;10434380;28;20221;-29
2022/11/11 07:57:04;;;;;;;19.27;1.80;;;;;;;18.08;60.05;98163.19;10430029;28;20544;-29
2022/11/11 08:02:24;;;;;;;9.68;1.38;;;;;;;17.92;59.40;98136.59;10426550;28;20037;-29
2022/11/11 08:07:42;;;;;;;4.10;0.80;;;;;;;18.09;60.25;98162.38;10426051;28;20041;-30
2022/11/11 08:18:40;;;;;;;9.35;1.23;;;;;;;18.09;60.45;98169.97;10429191;28;20041;-30
2022/11/11 08:23:59;;;;;;;8.88;0.90;;;;;;;18.07;60.70;98169.09;10429823;28;20079;-29
2022/11/11 08:29:19;;;;;;;6.25;1.38;;;;;;;18.07;60.98;98166.56;10430092;28;20037;-30
2022/11/11 08:34:38;;;;;;;4.07;1.23;;;;;;;18.09;60.54;98168.28;10431342;28;20045;-29
2022/11/11 08:39:57;;;;;;;9.35;1.35;;;;;;;18.04;60.81;98166.47;10439874;28;20048;-30
2022/11/11 08:45:16;;;;;;;14.93;2.35;;;;;;;17.95;59.25;98167.09;10432780;28;20116;-31
2022/11/11 08:50:40;;;;;;;13.02;1.45;;;;;;;17.94;60.54;98169.59;10431383;28;20120;-30
2022/11/11 08:56:01;;;;;;;6.50;1.67;;;;;;;18.00;60.64;98179.91;10441104;28;20040;-30
2022/11/11 09:01:20;;;;;;;6.97;1.27;;;;;;;18.05;60.56;98165.63;10441270;28;20155;-29
2022/11/11 09:06:42;;;;;;;6.78;2.15;;;;;;;18.03;60.67;98174.88;10436704;28;20543;-29
2022/11/11 09:12:01;;;;;;;2.20;1.10;;;;;;;18.03;60.31;98172.34;10444545;28;20037;-28
2022/11/11 09:17:20;;;;;;;8.30;1.23;;;;;;;18.02;60.29;98173.19;10437010;28;20036;-30
2022/11/11 09:22:44;;;;;;;4.88;1.33;;;;;;;17.99;60.66;98183.25;10434553;28;20037;-29
2022/11/11 09:28:03;;;;;;;6.90;1.60;;;;;;;17.98;60.91;98182.38;10436894;28;20033;-30
2022/11/11 09:33:22;;;;;;;4.03;1.33;;;;;;;17.98;61.03;98192.50;10443464;28;20112;-29
2022/11/11 09:38:41;;;;;;;5.13;1.02;;;;;;;17.97;60.90;98183.19;10440908;28;20042;-29
2022/11/11 09:44:02;;;;;;;6.10;1.30;;;;;;;17.97;61.13;98184.88;10436348;28;20041;-30
2022/11/11 09:49:27;;;;;;;4.05;1.00;;;;;;;17.96;60.94;98178.97;10440756;28;20044;-29
2022/11/11 09:54:55;;;;;;;5.53;1.38;;;;;;;17.97;61.11;98175.59;10432129;28;20033;-29
2022/11/11 10:00:21;;;;;;;3.85;0.90;;;;;;;17.96;60.93;98178.09;10442755;28;20041;-29
2022/11/11 10:06:03;;;;;;;3.45;1.20;;;;;;;17.99;60.92;98168.03;10438035;28;20041;-30
2022/11/11 10:11:30;;;;;;;6.00;1.08;;;;;;;18.01;60.99;98166.41;10441573;28;20045;-29
2022/11/11 10:17:00;;;;;;;1.60;0.60;;;;;;;18.01;61.00;98157.09;10436618;28;20040;-29
2022/11/11 10:22:24;;;;;;;2.05;0.80;;;;;;;17.87;59.67;98155.91;10436643;28;20415;-30
2022/11/11 10:27:45;;;;;;;1.60;0.63;;;;;;;17.94;60.64;98145.13;10435168;28;20045;-29
2022/11/11 10:33:27;;;;;;;3.72;1.30;;;;;;;17.92;60.80;98144.22;10434391;28;20069;-30
2022/11/11 10:38:52;;;;;;;2.42;1.02;;;;;;;17.92;61.02;98129.00;10438666;28;20034;-29
2022/11/11 10:44:25;;;;;;;2.80;1.00;;;;;;;17.93;61.05;98122.28;10434173;28;20251;-29
2022/11/11 10:50:02;;;;;;;4.05;1.55;;;;;;;17.91;61.21;98119.69;10438061;28;20041;-29
2022/11/11 10:55:29;;;;;;;;;;;;;;;17.92;61.18;98115.50;10439747;28;20096;-31
2022/11/11 11:00:51;;;;;;;5.18;0.77;;;;;;;17.91;61.06;98114.63;10434732;28;20182;-29
2022/11/11 11:06:14;;;;;;;4.75;1.40;;;;;;;17.94;61.09;98108.78;10433356;28;20465;-30
2022/11/11 11:12:08;;;;;;;1.33;0.80;;;;;;;18.00;60.76;98104.72;10440708;28;20498;-30
2022/11/11 11:17:44;;;;;;;2.03;0.80;;;;;;;18.06;60.67;98107.41;10433732;28;20450;-29
2022/11/11 11:23:03;;;;;;;2.63;0.50;;;;;;;18.07;60.79;98104.03;10432670;28;20061;-30
2022/11/11 11:28:22;;;;;;;1.25;0.77;;;;;;;18.11;60.37;98102.44;10436581;28;20120;-30
2022/11/11 11:33:52;;;;;;;2.22;0.68;;;;;;;18.10;60.62;98115.94;10438009;28;20053;-30
2022/11/11 11:39:11;;;;;;;1.60;1.15;;;;;;;18.09;60.79;98119.28;10431969;28;20049;-29
2022/11/11 11:44:30;;;;;;;1.85;0.57;;;;;;;18.09;60.57;98114.22;10432270;28;20029;-31
2022/11/11 11:50:04;;;;;;;4.10;0.82;;;;;;;18.05;60.76;98127.63;10432299;28;20128;-29
2022/11/11 11:55:56;;;;;;;3.33;0.70;;;;;;;18.06;60.85;98129.34;10430205;28;20392;-31
2022/11/11 12:01:26;;;;;;;9.55;1.38;;;;;;;17.98;61.22;98138.47;10426041;28;20441;-30
2022/11/11 12:06:55;;;;;;;7.38;1.35;;;;;;;18.04;61.34;98141.13;10431748;28;20507;-30
2022/11/11 12:12:29;;;;;;;14.70;2.33;;;;;;;18.12;61.02;98137.09;10437931;28;20491;-29
2022/11/11 12:18:19;;;;;;;11.23;1.35;;;;;;;18.14;60.62;98143.03;10432499;28;20045;-29
2022/11/11 12:24:30;;;;;;;10.57;1.58;;;;;;;18.09;60.03;98134.50;10440236;28;20041;-29
2022/11/11 12:30:09;;;;;;;8.57;1.63;;;;;;;18.09;60.80;98124.34;10428843;28;20041;-30
2022/11/11 12:35:59;;;;;;;8.13;1.20;;;;;;;18.15;60.57;98134.66;10430560;28;20041;-29
2022/11/11 12:41:37;;;;;;;6.38;1.70;;;;;;;18.12;61.01;98130.34;10432591;28;20477;-31
2022/11/11 12:47:08;;;;;;;8.13;1.40;;;;;;;18.13;61.17;98116.00;10430404;28;20124;-29
2022/11/11 12:52:42;;;;;;;7.20;2.00;;;;;;;18.13;61.07;98111.78;10429008;28;20414;-29
2022/11/11 12:58:01;;;;;;;2.97;1.17;;;;;;;18.11;61.08;98115.09;10428802;28;20045;-30
2022/11/11 13:03:38;;;;;;;8.40;2.20;;;;;;;18.14;61.12;98112.63;10432596;28;20037;-30
2022/11/11 13:09:16;;;;;;;;;;;;;;;18.16;61.03;98100.88;10425681;28;20044;-30
2022/11/11 13:14:44;;;;;;;4.75;2.17;;;;;;;18.17;61.15;98092.44;10430412;28;19921;-30
2022/11/11 13:20:35;;;;;;;11.77;2.60;;;;;;;18.19;61.13;98095.88;10430879;28;20550;-30
2022/11/11 13:26:00;;;;;;;6.95;2.83;;;;;;;18.20;61.06;98098.44;10428312;28;20045;-31
2022/11/11 13:31:32;;;;;;;13.65;3.20;;;;;;;18.26;62.02;98092.66;10427912;28;20527;-30
2022/11/11 13:36:54;;;;;;;10.52;4.45;;;;;;;18.29;63.48;98092.69;10431286;28;20045;-31
2022/11/11 13:42:22;;;;;;;13.93;5.47;;;;;;;18.23;62.69;98098.50;10429274;28;20079;-30
2022/11/11 13:47:43;;;;;;;;;;;;;;;18.24;62.11;98090.06;10436990;28;20045;-29
2022/11/11 13:53:13;;;;;;;12.65;4.18;;;;;;;18.21;62.06;98091.69;10430583;28;20877;-30
2022/11/11 13:58:36;;;;;;;9.10;3.72;;;;;;;18.19;62.43;98093.31;10438034;28;20123;-30
2022/11/11 14:03:59;;;;;;;15.77;5.05;;;;;;;18.18;62.46;98092.44;10436791;28;20116;-30
2022/11/11 14:09:57;;;;;;;10.18;4.05;;;;;;;18.16;62.60;98091.56;10428574;28;20511;-29
2022/11/11 14:15:46;;;;;;;13.23;4.78;;;;;;;18.16;62.85;98093.28;10426306;28;20041;-30
2022/11/11 14:21:07;;;;;;;16.27;4.72;;;;;;;18.16;62.99;98093.28;10422095;28;20033;-29
2022/11/11 14:26:28;;;;;;;7.32;3.90;;;;;;;18.18;62.69;98099.22;10434602;28;20053;-30
2022/11/11 14:32:10;;;;;;;8.00;2.92;;;;;;;18.16;63.01;98096.63;10432900;28;20041;-30
2022/11/11 14:37:45;;;;;;;11.57;3.53;;;;;;;18.16;63.06;98091.56;10435980;28;20040;-29
2022/11/11 14:43:37;;;;;;;11.13;3.65;;;;;;;18.25;63.52;98075.72;10432805;28;20033;-32
2022/11/11 14:49:00;;;;;;;9.65;4.22;;;;;;;18.20;64.38;98077.28;10430537;28;20073;-30
2022/11/11 14:54:29;;;;;;;6.57;2.35;;;;;;;18.11;62.66;98074.56;10427669;28;20041;-29
2022/11/11 14:59:48;;;;;;;7.00;3.72;;;;;;;18.08;62.92;98082.09;10428880;28;20530;-30
2022/11/11 15:05:16;;;;;;;12.48;5.05;;;;;;;18.02;63.24;98069.28;10435939;28;20045;-29
2022/11/11 15:10:43;;;;;;;;;;;;;;;18.03;63.36;98078.59;10432159;28;20044;-30
2022/11/11 15:16:22;;;;;;;11.35;4.60;;;;;;;18.01;63.63;98091.22;10433786;28;20710;-30
2022/11/11 15:22:01;;;;;;;10.90;5.53;;;;;;;18.00;63.66;98094.56;10433337;28;20036;-30
2022/11/11 15:27:43;;;;;;;8.38;5.28;;;;;;;18.01;63.74;98096.28;10422336;28;20486;-29
2022/11/11 15:33:22;;;;;;;20.30;6.00;;;;;;;18.03;63.89;98103.94;10432818;28;20053;-29
2022/11/11 15:38:42;;;;;;;21.80;5.75;;;;;;;17.94;63.15;98116.38;10420846;28;20136;-30
2022/11/11 15:44:01;;;;;;;23.70;6.45;;;;;;;17.98;64.22;98110.59;10440434;28;20068;-30
2022/11/11 15:49:39;;;;;;;20.85;6.07;;;;;;;18.00;63.75;98119.91;10429498;28;20071;-30
2022/11/11 15:55:01;;;;;;;11.60;4.75;;;;;;;18.00;63.64;98122.44;10429499;28;20460;-29
2022/11/11 16:00:22;;;;;;;13.85;5.32;;;;;;;18.01;63.48;98136.81;10432808;28;20037;-30
2022/11/11 16:05:43;;;;;;;15.98;5.13;;;;;;;17.99;63.38;98142.69;10425853;28;20049;-30
2022/11/11 16:11:02;;;;;;;14.57;4.40;;;;;;;17.98;63.42;98138.47;10444979;28;20049;-30
2022/11/11 16:16:26;;;;;;;10.02;4.70;;;;;;;17.97;63.31;98129.13;10429189;28;20618;-29
2022/11/11 16:22:03;;;;;;;14.52;5.35;;;;;;;17.95;63.33;98120.63;10436165;28;20037;-29
2022/11/11 16:27:28;;;;;;;;;;;;;;;17.94;63.37;98122.31;10426637;28;20063;-30
2022/11/11 16:32:47;;;;;;;8.98;3.97;;;;;;;17.93;63.37;98124.81;10439220;28;19916;-29
2022/11/11 16:38:06;;;;;;;7.75;3.75;;;;;;;17.90;63.65;98117.16;10436023;28;20495;-30
2022/11/11 16:43:29;;;;;;;11.68;3.58;;;;;;;17.87;63.35;98122.13;10425284;28;20041;-30
2022/11/11 16:48:51;;;;;;;7.85;3.80;;;;;;;17.92;63.60;98128.16;10429124;28;20450;-29
2022/11/11 16:54:15;;;;;;;7.95;3.92;;;;;;;17.96;63.67;98129.94;10428273;28;20041;-30
2022/11/11 16:59:41;;;;;;;10.60;3.72;;;;;;;17.92;63.80;98125.63;10436076;28;20508;-29
2022/11/11 17:05:00;;;;;;;8.77;3.70;;;;;;;17.95;63.61;98120.63;10428997;28;20041;-29
2022/11/11 17:10:21;;;;;;;10.25;3.85;;;;;;;17.93;63.61;98123.09;10433038;28;20036;-29
2022/11/11 17:15:40;;;;;;;11.02;3.58;;;;;;;17.91;63.46;98122.22;10436134;28;20037;-30
2022/11/11 17:21:01;;;;;;;7.28;3.60;;;;;;;17.88;63.36;98123.81;10440597;28;20041;-29
2022/11/11 17:26:20;;;;;;;5.60;3.25;;;;;;;17.89;63.58;98128.06;10442063;28;20128;-30
2022/11/11 17:31:39;;;;;;;7.00;3.97;;;;;;;17.85;63.71;98118.69;10431436;28;20069;-31
2022/11/11 17:36:57;;;;;;;8.70;3.83;;;;;;;17.86;63.77;98128.00;10436823;28;20398;-29
2022/11/11 17:42:17;;;;;;;9.02;3.70;;;;;;;17.88;63.45;98133.97;10439127;28;20033;-31
2022/11/11 17:47:36;;;;;;;8.48;3.30;;;;;;;17.81;63.34;98120.28;10437594;28;20029;-29
2022/11/11 17:52:58;;;;;;;4.18;3.17;;;;;;;17.94;63.60;98141.72;10435440;28;20033;-29
2022/11/11 17:58:18;;;;;;;4.55;2.67;;;;;;;17.96;62.96;98135.00;10441717;28;20041;-31
2022/11/11 18:03:37;;;;;;;3.88;3.00;;;;;;;17.98;63.25;98141.00;10436412;28;20075;-30
2022/11/11 18:08:56;;;;;;;5.90;2.95;;;;;;;18.02;62.91;98145.31;10435061;28;20480;-30
2022/11/11 18:14:16;;;;;;;7.07;3.35;;;;;;;18.04;62.43;98146.19;10440876;28;20112;-30
2022/11/11 18:19:35;;;;;;;4.68;2.60;;;;;;;18.03;62.58;98149.53;10437257;28;20038;-29
2022/11/11 18:24:54;;;;;;;4.75;2.60;;;;;;;18.03;62.35;98144.47;10440512;28;20041;-29
2022/11/11 18:30:13;;;;;;;4.00;2.75;;;;;;;18.04;62.56;98151.25;10436791;28;20045;-29
2022/11/11 18:35:32;;;;;;;5.70;2.67;;;;;;;17.94;62.68;98141.72;10442017;28;20426;-29
2022/11/11 18:40:51;;;;;;;6.05;3.03;;;;;;;18.03;62.44;98144.47;10433015;28;20470;-29
2022/11/11 18:46:17;;;;;;;4.95;3.50;;;;;;;17.95;62.52;98129.09;10440636;28;20041;-30
2022/11/11 18:51:37;;;;;;;3.90;2.60;;;;;;;18.02;62.41;98141.09;10437651;28;20503;-30
2022/11/11 18:56:56;;;;;;;3.72;2.15;;;;;;;17.98;62.52;98141.84;10435140;28;20120;-29
2022/11/11 19:02:15;;;;;;;3.83;2.38;;;;;;;17.99;62.48;98132.56;10441213;28;20589;-29
2022/11/11 19:07:34;;;;;;;4.30;2.38;;;;;;;17.98;62.43;98131.69;10431843;28;20123;-29
2022/11/11 19:12:52;;;;;;;4.82;2.80;;;;;;;18.06;62.30;98144.53;10439540;28;20045;-29
2022/11/11 19:18:11;;;;;;;4.88;2.90;;;;;;;18.05;61.95;98145.38;10432496;28;20415;-29
2022/11/11 19:23:30;;;;;;;5.18;2.42;;;;;;;18.00;62.26;98139.34;10431178;28;20033;-29
2022/11/11 19:28:49;;;;;;;3.00;2.70;;;;;;;17.96;62.25;98129.94;10435061;28;20065;-29
2022/11/11 19:34:09;;;;;;;4.97;2.90;;;;;;;17.99;62.39;98148.59;10432939;28;20454;-29
2022/11/11 19:39:28;;;;;;;3.50;2.80;;;;;;;17.99;62.37;98145.25;10438452;28;20045;-30
2022/11/11 19:44:47;;;;;;;2.88;2.25;;;;;;;17.96;62.34;98146.00;10433989;28;20029;-30
2022/11/11 19:50:08;;;;;;;2.75;2.30;;;;;;;17.98;62.44;98156.19;10432887;28;20545;-30
2022/11/11 19:55:27;;;;;;;3.65;2.72;;;;;;;17.98;62.36;98148.59;10431652;28;20037;-29
2022/11/11 20:00:45;;;;;;;4.18;2.50;;;;;;;17.97;61.92;98139.25;10434658;28;20028;-29
2022/11/11 20:06:06;;;;;;;5.07;2.45;;;;;;;17.98;62.10;98143.53;10431699;28;20503;-30
2022/11/11 20:11:25;;;;;;;3.92;2.72;;;;;;;17.96;62.09;98150.22;10438062;28;20045;-29
2022/11/11 20:16:44;;;;;;;3.85;2.55;;;;;;;18.01;61.96;98146.13;10430624;28;20119;-30
2022/11/11 20:22:04;;;;;;;7.82;2.75;;;;;;;18.00;62.64;98145.25;10436444;28;20041;-30
2022/11/11 20:27:23;;;;;;;4.15;2.72;;;;;;;18.04;62.55;98156.31;10433827;28;20478;-30
2022/11/11 20:32:44;;;;;;;4.68;2.38;;;;;;;18.05;62.26;98158.91;10431610;28;20218;-30
2022/11/11 20:38:03;;;;;;;3.47;2.13;;;;;;;18.07;62.04;98151.34;10434001;28;20044;-31
2022/11/11 20:43:22;;;;;;;6.28;2.70;;;;;;;18.07;62.14;98156.41;10430277;28;20045;-29
2022/11/11 20:48:43;;;;;;;6.82;2.72;;;;;;;18.06;62.30;98154.69;10432167;28;20120;-30
2022/11/11 20:54:02;;;;;;;11.13;2.90;;;;;;;17.99;62.00;98152.84;10434917;28;20037;-29
2022/11/11 20:59:21;;;;;;;12.80;2.53;;;;;;;17.87;60.08;98152.50;10435078;28;20431;-29
2022/11/11 21:04:40;;;;;;;6.93;2.60;;;;;;;17.73;57.90;98138.66;10440519;28;20515;-29
2022/11/11 21:09:59;;;;;;;3.67;1.77;;;;;;;17.55;57.59;98123.84;10428800;28;20242;-30
2022/11/11 21:15:18;;;;;;;8.75;2.47;;;;;;;17.86;59.36;98150.81;10444899;28;20040;-29
2022/11/11 21:20:36;;;;;;;3.80;1.80;;;;;;;17.89;59.85;98158.47;10444664;28;20516;-29
2022/11/11 21:26:03;;;;;;;4.88;1.95;;;;;;;17.95;59.93;98156.97;10443190;28;20041;-29
2022/11/11 21:31:28;;;;;;;5.60;2.53;;;;;;;18.04;60.17;98154.66;10431571;28;20045;-29
2022/11/11 21:36:47;;;;;;;5.50;2.10;;;;;;;18.06;60.34;98152.13;10443398;28;20036;-30
2022/11/11 21:42:06;;;;;;;2.65;1.90;;;;;;;18.10;60.05;98159.00;10439965;28;20037;-29
2022/11/11 21:47:25;;;;;;;4.05;2.38;;;;;;;18.03;60.54;98159.69;10445286;28;20036;-30
2022/11/11 21:52:44;;;;;;;5.18;2.10;;;;;;;18.03;60.87;98159.69;10434823;28;20036;-29
2022/11/11 21:58:03;;;;;;;2.75;2.05;;;;;;;17.94;60.94;98154.38;10438819;28;20489;-30
2022/11/11 22:03:22;;;;;;;3.97;2.15;;;;;;;17.99;60.73;98150.31;10431914;28;20064;-31
2022/11/11 22:08:41;;;;;;;2.42;1.70;;;;;;;17.99;60.81;98152.84;10432935;28;20037;-30
2022/11/11 22:14:01;;;;;;;3.83;1.95;;;;;;;17.98;61.07;98151.13;10440047;28;20209;-29
2022/11/11 22:19:19;;;;;;;4.63;2.13;;;;;;;17.96;61.32;98150.22;10437675;28;20096;-30
2022/11/11 22:24:38;;;;;;;3.50;2.17;;;;;;;17.95;61.18;98145.97;10440718;28;20033;-30
2022/11/11 22:29:57;;;;;;;3.25;2.60;;;;;;;17.92;61.33;98138.31;10429102;28;20041;-29
2022/11/11 22:35:16;;;;;;;2.67;2.10;;;;;;;17.91;61.29;98129.00;10435599;28;20037;-30
2022/11/11 22:40:35;;;;;;;3.25;1.85;;;;;;;18.01;61.08;98134.28;10439739;28;20038;-29
2022/11/11 22:45:56;;;;;;;2.05;1.85;;;;;;;18.03;61.10;98134.34;10440811;28;20032;-29
2022/11/11 22:51:16;;;;;;;4.68;1.90;;;;;;;18.05;61.11;98133.56;10435781;28;20037;-29
2022/11/11 22:56:34;;;;;;;4.13;2.00;;;;;;;17.96;61.14;98138.41;10436869;28;20038;-29
2022/11/11 23:01:53;;;;;;;3.15;2.22;;;;;;;17.93;61.38;98133.25;10428001;28;20065;-29
2022/11/11 23:07:12;;;;;;;5.28;2.42;;;;;;;17.94;61.39;98136.66;10433853;28;20049;-29
2022/11/11 23:12:31;;;;;;;2.17;1.92;;;;;;;17.90;61.47;98137.41;10442057;28;20127;-30
2022/11/11 23:17:50;;;;;;;2.60;1.85;;;;;;;17.90;61.54;98133.19;10429310;28;20045;-30
2022/11/11 23:23:09;;;;;;;3.53;2.05;;;;;;;17.89;61.63;98128.94;10429928;28;20041;-30
2022/11/11 23:28:29;;;;;;;2.67;2.15;;;;;;;17.89;61.48;98120.47;10437408;28;20049;-30
2022/11/11 23:33:50;;;;;;;2.35;1.90;;;;;;;17.89;61.43;98121.34;10435160;28;20041;-30
2022/11/11 23:39:09;;;;;;;3.53;2.10;;;;;;;17.88;61.47;98123.81;10436913;28;20048;-30
2022/11/11 23:44:28;;;;;;;2.50;1.77;;;;;;;17.91;61.36;98119.69;10433134;28;20040;-28
2022/11/11 23:49:47;;;;;;;2.33;2.10;;;;;;;17.94;61.08;98118.91;10440005;28;20419;-29
2022/11/11 23:55:08;;;;;;;3.20;2.65;;;;;;;17.98;61.07;98116.50;10431679;28;20066;-29
